createdAt,value
2023-03-16T00:02:18.973Z,81.80
2023-03-16T00:05:21.019Z,81.50
2023-03-16T00:08:23.098Z,81.90
2023-03-16T00:11:28.435Z,81.30
2023-03-16T00:14:32.401Z,81.40
2023-03-16T00:17:34.449Z,81.90
2023-03-16T00:20:36.301Z,82.00
2023-03-16T00:23:38.251Z,81.90
2023-03-16T00:26:40.136Z,81.40
2023-03-16T00:29:47.429Z,81.20
2023-03-16T00:32:49.387Z,81.40
2023-03-16T00:35:52.662Z,81.30
2023-03-16T00:38:54.611Z,81.80
2023-03-16T00:41:56.448Z,81.30
2023-03-16T00:44:59.107Z,81.00
2023-03-16T00:48:03.294Z,81.20
2023-03-16T00:51:08.590Z,81.60
2023-03-16T00:54:10.443Z,81.80
2023-03-16T00:57:15.730Z,81.80
2023-03-16T01:00:17.975Z,82.30
2023-03-16T01:03:23.830Z,82.50
2023-03-16T01:06:26.219Z,82.60
2023-03-16T01:09:28.098Z,82.30
2023-03-16T01:12:30.659Z,81.90
2023-03-16T01:15:32.551Z,82.70
2023-03-16T01:18:35.738Z,82.50
2023-03-16T01:21:37.594Z,82.40
2023-03-16T01:24:40.682Z,82.50
2023-03-16T01:27:42.434Z,82.50
2023-03-16T01:30:44.406Z,82.90
2023-03-16T01:33:46.343Z,82.60
2023-03-16T01:36:53.937Z,82.60
2023-03-16T01:40:06.797Z,82.10
2023-03-16T01:43:11.809Z,82.50
2023-03-16T01:46:27.804Z,82.50
2023-03-16T01:49:36.567Z,82.80
2023-03-16T01:52:39.546Z,82.70
2023-03-16T01:55:42.564Z,82.40
2023-03-16T01:58:45.733Z,82.50
2023-03-16T02:01:49.018Z,82.30
2023-03-16T02:05:01.769Z,81.80
2023-03-16T02:08:05.650Z,82.00
2023-03-16T02:11:08.637Z,81.70
2023-03-16T02:14:20.433Z,82.20
2023-03-16T02:17:26.843Z,82.10
2023-03-16T02:21:14.468Z,82.00
2023-03-16T02:24:16.895Z,82.70
2023-03-16T02:27:33.156Z,82.70
2023-03-16T02:30:35.389Z,83.00
2023-03-16T02:33:39.248Z,82.80
2023-03-16T02:36:45.857Z,82.50
2023-03-16T02:39:48.475Z,82.40
2023-03-16T02:43:15.819Z,82.10
2023-03-16T02:46:27.468Z,81.80
2023-03-16T02:49:42.287Z,82.60
2023-03-16T02:52:44.182Z,82.70
2023-03-16T02:55:46.477Z,83.00
2023-03-16T02:58:48.594Z,82.80
2023-03-16T03:01:53.639Z,82.70
2023-03-16T03:04:55.543Z,83.10
2023-03-16T03:07:59.449Z,82.70
2023-03-16T03:11:02.163Z,82.60
2023-03-16T03:14:04.581Z,83.00
2023-03-16T03:17:08.186Z,83.20
2023-03-16T03:20:11.552Z,83.40
2023-03-16T03:23:13.437Z,83.00
2023-03-16T03:26:16.761Z,83.80
2023-03-16T03:29:19.896Z,83.40
2023-03-16T03:32:21.940Z,83.50
2023-03-16T03:35:23.874Z,84.20
2023-03-16T03:38:26.284Z,83.90
2023-03-16T03:44:36.965Z,84.20
2023-03-16T03:47:40.701Z,83.90
2023-03-16T03:50:46.122Z,84.40
2023-03-16T03:54:02.431Z,83.80
2023-03-16T03:57:21.816Z,83.70
2023-03-16T04:00:24.940Z,83.70
2023-03-16T04:03:27.036Z,83.80
2023-03-16T04:06:29.058Z,83.40
2023-03-16T04:09:31.075Z,83.10
2023-03-16T04:12:33.246Z,83.10
2023-03-16T04:15:38.102Z,83.00
2023-03-16T04:18:54.547Z,82.80
2023-03-16T04:21:58.093Z,83.10
2023-03-16T04:25:00.185Z,82.80
2023-03-16T04:28:03.349Z,83.00
2023-03-16T04:31:10.175Z,82.90
2023-03-16T04:34:16.579Z,83.10
2023-03-16T04:37:18.872Z,82.90
2023-03-16T04:40:21.208Z,82.90
2023-03-16T04:43:30.649Z,82.70
2023-03-16T04:46:38.569Z,83.20
2023-03-16T04:49:43.983Z,83.10
2023-03-16T04:52:47.345Z,83.20
2023-03-16T04:55:49.820Z,83.60
2023-03-16T04:58:51.963Z,83.50
2023-03-16T05:01:56.152Z,83.70
2023-03-16T05:04:58.614Z,83.20
2023-03-16T05:08:00.791Z,83.10
2023-03-16T05:11:05.286Z,82.60
2023-03-16T05:14:12.452Z,83.20
2023-03-16T05:17:28.624Z,82.90
2023-03-16T05:20:31.272Z,83.50
2023-03-16T05:23:36.288Z,83.50
2023-03-16T05:26:39.164Z,83.10
2023-03-16T05:29:46.190Z,82.60
2023-03-16T05:32:48.729Z,82.60
2023-03-16T05:35:51.651Z,82.70
2023-03-16T05:38:55.474Z,82.80
2023-03-16T05:42:04.912Z,83.00
2023-03-16T05:45:16.582Z,83.00
2023-03-16T05:48:30.954Z,83.00
2023-03-16T05:51:34.560Z,83.10
2023-03-16T05:54:39.133Z,83.20
2023-03-16T05:57:44.110Z,83.00
2023-03-16T06:00:46.415Z,83.20
2023-03-16T06:03:57.834Z,83.30
2023-03-16T06:07:05.778Z,83.10
2023-03-16T06:10:10.043Z,83.00
2023-03-16T06:13:12.709Z,82.90
2023-03-16T06:16:14.722Z,83.30
2023-03-16T06:19:17.108Z,82.80
2023-03-16T06:22:21.282Z,82.70
2023-03-16T06:25:23.730Z,82.70
2023-03-16T06:28:26.110Z,82.70
2023-03-16T06:31:28.265Z,82.20
2023-03-16T06:34:30.217Z,82.10
2023-03-16T06:37:32.588Z,81.40
2023-03-16T06:40:38.265Z,80.80
2023-03-16T06:43:41.406Z,78.40
2023-03-16T06:46:44.888Z,76.20
2023-03-16T06:49:47.079Z,74.60
2023-03-16T06:52:54.482Z,72.90
2023-03-16T06:55:56.744Z,71.60
2023-03-16T06:58:59.943Z,70.80
2023-03-16T07:02:02.066Z,69.60
2023-03-16T07:05:04.572Z,68.50
2023-03-16T07:08:06.602Z,65.80
2023-03-16T07:11:09.346Z,66.20
2023-03-16T07:14:11.261Z,65.20
2023-03-16T07:17:13.160Z,64.10
2023-03-16T07:20:15.164Z,63.30
2023-03-16T07:23:18.590Z,61.90
2023-03-16T07:26:22.441Z,60.10
2023-03-16T07:29:29.396Z,59.00
2023-03-16T07:32:32.511Z,58.60
2023-03-16T07:35:35.923Z,57.60
2023-03-16T07:45:13.865Z,54.70
2023-03-16T07:48:18.074Z,53.80
2023-03-16T07:51:30.503Z,52.80
2023-03-16T07:54:32.757Z,51.30
2023-03-16T07:57:35.513Z,51.40
2023-03-16T08:00:38.087Z,49.30
2023-03-16T08:03:40.138Z,48.50
2023-03-16T08:06:42.393Z,48.60
2023-03-16T08:09:44.515Z,46.30
2023-03-16T08:12:52.001Z,46.00
2023-03-16T08:15:54.594Z,45.40
2023-03-16T08:19:02.050Z,44.00
2023-03-16T08:22:04.612Z,43.10
2023-03-16T08:25:15.060Z,41.90
2023-03-16T08:28:27.207Z,43.10
2023-03-16T08:31:31.167Z,42.80
2023-03-16T08:34:44.724Z,41.80
2023-03-16T08:37:46.848Z,41.80
2023-03-16T08:40:51.161Z,41.40
2023-03-16T08:43:55.541Z,41.60
2023-03-16T08:46:57.549Z,40.70
2023-03-16T08:50:03.293Z,40.70
2023-03-16T08:53:05.320Z,42.60
2023-03-16T08:56:09.586Z,42.10
2023-03-16T08:59:29.811Z,42.90
2023-03-16T09:02:32.423Z,42.50
2023-03-16T09:05:34.448Z,42.60
2023-03-16T09:08:37.216Z,41.90
2023-03-16T09:11:39.155Z,43.00
2023-03-16T09:14:41.055Z,45.60
2023-03-16T09:17:44.091Z,44.50
2023-03-16T09:20:46.301Z,44.20
2023-03-16T09:23:48.406Z,45.10
2023-03-16T09:26:50.410Z,45.20
2023-03-16T09:29:52.316Z,44.50
2023-03-16T09:32:54.801Z,42.90
2023-03-16T09:35:56.944Z,43.40
2023-03-16T09:38:58.889Z,43.90
2023-03-16T09:42:18.913Z,43.70
2023-03-16T09:45:41.132Z,43.90
2023-03-16T09:48:43.993Z,43.30
2023-03-16T09:52:00.735Z,42.10
2023-03-16T09:55:46.218Z,42.90
2023-03-16T09:58:48.393Z,42.70
2023-03-16T10:02:27.756Z,42.70
2023-03-16T10:05:31.057Z,44.70
2023-03-16T10:08:39.779Z,41.60
2023-03-16T10:11:47.030Z,40.60
2023-03-16T10:15:10.156Z,42.60
2023-03-16T10:18:22.418Z,42.70
2023-03-16T10:21:24.945Z,40.70
2023-03-16T10:24:33.355Z,40.50
2023-03-16T10:27:37.392Z,41.40
2023-03-16T10:30:39.405Z,40.20
2023-03-16T10:33:41.206Z,41.10
2023-03-16T10:36:44.856Z,40.20
2023-03-16T10:39:48.735Z,39.10
2023-03-16T10:42:50.752Z,41.70
2023-03-16T10:45:58.159Z,41.50
2023-03-16T10:49:02.226Z,39.60
2023-03-16T10:52:43.235Z,40.30
2023-03-16T10:55:47.563Z,38.90
2023-03-16T10:58:49.772Z,39.90
2023-03-16T11:01:52.018Z,40.90
2023-03-16T11:04:53.901Z,40.80
2023-03-16T11:08:20.631Z,41.50
2023-03-16T11:11:31.455Z,42.00
2023-03-16T11:14:34.163Z,42.70
2023-03-16T11:17:47.486Z,41.90
2023-03-16T11:20:54.281Z,42.70
2023-03-16T11:23:57.687Z,45.00
2023-03-16T11:27:03.865Z,44.20
2023-03-16T11:30:29.638Z,40.60
2023-03-16T11:33:34.917Z,40.60
2023-03-16T11:37:15.296Z,41.40
2023-03-16T11:40:29.167Z,41.10
2023-03-16T11:43:49.593Z,41.80
2023-03-16T11:47:32.770Z,41.90
2023-03-16T12:03:30.942Z,41.30
2023-03-16T12:07:00.138Z,42.30
2023-03-16T12:10:28.130Z,41.40
2023-03-16T12:14:00.530Z,42.70
2023-03-16T12:17:16.727Z,39.40
2023-03-16T12:20:32.534Z,40.50
2023-03-16T12:23:40.876Z,38.90
2023-03-16T12:26:43.472Z,40.00
2023-03-16T12:30:14.730Z,41.90
2023-03-16T12:33:38.447Z,42.80
2023-03-16T12:36:53.027Z,41.40
2023-03-16T12:40:08.388Z,38.90
2023-03-16T12:43:28.497Z,40.20
2023-03-16T12:46:51.913Z,40.80
2023-03-16T12:49:54.627Z,41.70
2023-03-16T12:52:56.806Z,41.60
2023-03-16T12:56:10.627Z,40.60
2023-03-16T12:59:21.156Z,42.60
2023-03-16T13:02:35.162Z,39.90
2023-03-16T13:05:44.433Z,40.80
2023-03-16T13:08:51.709Z,40.80
2023-03-16T13:11:53.688Z,40.60
2023-03-16T13:14:55.632Z,41.30
2023-03-16T13:18:21.696Z,39.70
2023-03-16T13:21:44.826Z,41.30
2023-03-16T13:25:11.458Z,39.60
2023-03-16T13:28:15.378Z,41.00
2023-03-16T13:31:40.500Z,39.00
2023-03-16T13:34:51.349Z,39.10
2023-03-16T13:37:53.937Z,37.40
2023-03-16T13:41:01.576Z,38.00
2023-03-16T13:44:05.177Z,37.80
2023-03-16T13:47:07.566Z,37.10
2023-03-16T13:50:14.357Z,38.00
2023-03-16T13:53:21.583Z,37.80
2023-03-16T13:56:26.325Z,36.50
2023-03-16T13:59:28.265Z,38.60
2023-03-16T14:02:30.474Z,38.50
2023-03-16T14:05:34.369Z,39.10
2023-03-16T14:08:36.313Z,38.10
2023-03-16T14:11:38.613Z,38.10
2023-03-16T14:14:41.727Z,36.30
2023-03-16T14:17:43.908Z,36.00
2023-03-16T14:20:45.796Z,37.40
2023-03-16T14:23:57.861Z,37.30
2023-03-16T14:27:16.087Z,38.50
2023-03-16T14:30:18.258Z,39.20
2023-03-16T14:33:30.441Z,39.00
2023-03-16T14:36:38.495Z,39.40
2023-03-16T14:39:40.838Z,39.30
2023-03-16T14:42:43.149Z,39.00
2023-03-16T14:45:45.019Z,38.80
2023-03-16T14:48:46.956Z,38.20
2023-03-16T14:51:53.506Z,38.80
2023-03-16T14:54:55.481Z,38.10
2023-03-16T14:57:59.603Z,38.80
2023-03-16T15:01:01.656Z,39.40
2023-03-16T15:04:04.128Z,40.90
2023-03-16T15:07:20.889Z,40.80
2023-03-16T15:10:27.067Z,40.10
2023-03-16T15:13:29.149Z,40.60
2023-03-16T15:16:31.177Z,41.50
2023-03-16T15:19:33.053Z,41.90
2023-03-16T15:22:38.194Z,40.80
2023-03-16T15:25:42.598Z,41.70
2023-03-16T15:28:44.586Z,41.80
2023-03-16T15:31:46.619Z,41.80
2023-03-16T15:34:48.540Z,42.90
2023-03-16T15:37:50.446Z,42.20
2023-03-16T15:40:53.056Z,43.40
2023-03-16T15:43:55.042Z,44.30
2023-03-16T15:46:56.999Z,43.60
2023-03-16T15:50:00.049Z,43.70
2023-03-16T15:53:07.288Z,42.90
2023-03-16T15:56:15.619Z,43.60
2023-03-16T15:59:17.745Z,44.60
2023-03-16T16:02:30.892Z,43.30
2023-03-16T16:05:33.732Z,44.30
2023-03-16T16:08:35.661Z,44.90
2023-03-16T16:11:38.591Z,44.90
2023-03-16T16:14:41.489Z,44.20
2023-03-16T16:17:57.431Z,44.20
2023-03-16T16:21:07.009Z,45.00
2023-03-16T16:24:09.917Z,47.20
2023-03-16T16:27:12.483Z,45.60
2023-03-16T16:30:25.567Z,46.30
2023-03-16T16:33:35.851Z,45.90
2023-03-16T16:36:39.904Z,46.80
2023-03-16T16:39:42.035Z,47.60
2023-03-16T16:42:46.551Z,46.80
2023-03-16T16:45:50.035Z,47.70
2023-03-16T16:48:57.964Z,47.10
2023-03-16T16:51:59.983Z,47.00
2023-03-16T16:55:01.878Z,47.00
2023-03-16T16:58:23.882Z,47.10
2023-03-16T17:01:29.273Z,47.60
2023-03-16T17:04:31.634Z,47.70
2023-03-16T17:07:33.610Z,47.80
2023-03-16T17:10:36.661Z,48.30
2023-03-16T17:13:40.656Z,49.00
2023-03-16T17:16:44.173Z,48.20
2023-03-16T17:19:52.458Z,49.10
2023-03-16T17:22:54.620Z,48.70
2023-03-16T17:25:58.941Z,49.20
2023-03-16T17:29:11.187Z,49.80
2023-03-16T17:32:20.159Z,49.90
2023-03-16T17:35:23.427Z,50.40
2023-03-16T17:38:25.619Z,50.30
2023-03-16T17:41:31.172Z,50.50
2023-03-16T17:44:40.195Z,50.50
2023-03-16T17:47:42.488Z,50.50
2023-03-16T17:53:52.736Z,51.10
2023-03-16T17:56:54.882Z,51.20
2023-03-16T18:00:17.992Z,51.10
2023-03-16T18:03:24.285Z,51.60
2023-03-16T18:09:35.801Z,52.00
2023-03-16T18:12:37.697Z,52.40
2023-03-16T18:15:41.908Z,52.40
2023-03-16T18:18:44.277Z,52.70
2023-03-16T18:21:46.127Z,53.10
2023-03-16T18:24:49.185Z,52.80
2023-03-16T18:27:53.568Z,53.10
2023-03-16T18:31:03.631Z,52.90
2023-03-16T18:34:06.629Z,53.10
2023-03-16T18:37:19.365Z,53.50
2023-03-16T18:40:27.664Z,53.20
2023-03-16T18:43:36.579Z,53.50
2023-03-16T18:46:38.543Z,53.30
2023-03-16T18:49:40.642Z,53.40
2023-03-16T18:52:42.659Z,53.60
2023-03-16T18:55:44.760Z,54.00
2023-03-16T18:58:48.243Z,54.10
2023-03-16T19:01:50.906Z,54.20
2023-03-16T19:04:53.381Z,54.20
2023-03-16T19:07:56.985Z,54.50
2023-03-16T19:11:01.956Z,54.60
2023-03-16T19:17:35.596Z,55.10
2023-03-16T19:20:37.931Z,55.10
2023-03-16T19:23:40.264Z,55.40
2023-03-16T19:26:42.657Z,55.70
2023-03-16T19:32:52.714Z,55.70
2023-03-16T19:35:56.053Z,55.90
2023-03-16T19:38:58.826Z,56.10
2023-03-16T19:42:00.705Z,56.10
2023-03-16T19:45:04.384Z,56.30
2023-03-16T19:48:18.470Z,56.70
2023-03-16T19:51:20.526Z,56.80
2023-03-16T19:54:31.545Z,57.10
2023-03-16T19:57:33.991Z,56.90
2023-03-16T20:00:35.887Z,57.10
2023-03-16T20:03:37.975Z,57.20
2023-03-16T20:06:40.058Z,57.60
2023-03-16T20:09:42.019Z,57.70
2023-03-16T20:12:44.277Z,58.40
2023-03-16T20:15:46.703Z,57.80
2023-03-16T20:18:56.937Z,58.10
2023-03-16T20:21:58.963Z,58.50
2023-03-16T20:25:00.973Z,58.50
2023-03-16T20:28:04.342Z,58.30
2023-03-16T20:34:22.959Z,58.40
2023-03-16T20:40:34.765Z,58.80
2023-03-16T20:43:36.813Z,59.10
2023-03-16T20:46:38.843Z,58.90
2023-03-16T20:49:40.778Z,59.20
2023-03-16T20:52:42.726Z,59.30
2023-03-16T20:55:44.965Z,59.60
2023-03-16T20:58:48.888Z,60.00
2023-03-16T21:01:51.506Z,59.80
2023-03-16T21:04:54.460Z,59.80
2023-03-16T21:07:56.625Z,60.30
2023-03-16T21:10:58.550Z,60.70
2023-03-16T21:14:00.421Z,60.60
2023-03-16T21:17:02.303Z,61.10
2023-03-16T21:20:20.491Z,60.50
2023-03-16T21:23:24.171Z,60.70
2023-03-16T21:26:33.010Z,61.10
2023-03-16T21:29:35.289Z,61.30
2023-03-16T21:32:37.330Z,61.50
2023-03-16T21:35:39.464Z,62.00
2023-03-16T21:38:41.404Z,62.00
2023-03-16T21:41:43.310Z,62.30
2023-03-16T21:44:45.501Z,62.30
2023-03-16T21:47:48.661Z,62.10
2023-03-16T21:50:52.422Z,61.90
2023-03-16T21:53:55.019Z,62.10
2023-03-16T21:56:56.903Z,61.90
2023-03-16T21:59:58.884Z,62.00
2023-03-16T22:03:03.426Z,61.90
2023-03-16T22:06:05.831Z,61.90
2023-03-16T22:09:15.186Z,61.90
2023-03-16T22:12:18.217Z,62.30
2023-03-16T22:15:20.178Z,62.50
2023-03-16T22:18:29.558Z,61.80
2023-03-16T22:21:37.002Z,62.20
2023-03-16T22:24:38.889Z,62.40
2023-03-16T22:27:40.810Z,62.30
2023-03-16T22:30:42.918Z,62.30
2023-03-16T22:33:45.976Z,62.10
2023-03-16T22:36:47.952Z,61.80
2023-03-16T22:39:50.161Z,61.70
2023-03-16T22:42:52.220Z,61.60
2023-03-16T22:45:54.102Z,61.30
2023-03-16T22:48:57.409Z,61.40
2023-03-16T22:51:59.383Z,61.10
2023-03-16T22:55:02.813Z,61.20
2023-03-16T22:58:14.959Z,61.30
2023-03-16T23:01:29.251Z,61.20
2023-03-16T23:04:31.220Z,60.80
2023-03-16T23:07:33.139Z,60.90
2023-03-16T23:10:37.852Z,61.50
2023-03-16T23:13:40.726Z,61.00
2023-03-16T23:16:42.981Z,61.10
2023-03-16T23:19:45.551Z,60.90
2023-03-16T23:22:48.040Z,60.90
2023-03-16T23:25:50.841Z,61.20
2023-03-16T23:28:55.231Z,61.00
2023-03-16T23:31:57.178Z,61.10
2023-03-16T23:34:59.788Z,61.20
2023-03-16T23:38:01.738Z,61.20
2023-03-16T23:41:03.720Z,61.50
2023-03-16T23:44:07.141Z,61.20
2023-03-16T23:47:10.920Z,63.20
2023-03-16T23:50:15.876Z,63.40
2023-03-16T23:53:19.310Z,61.00
2023-03-16T23:56:23.974Z,60.80
2023-03-16T23:59:26.614Z,63.20
